Airfield :
LOGIN :

Register | Disclaimer

   EN    FR    IT 

 










Legend :    VFR   Marginal VFR   IFR   Intensive IFR   Very Intensive IFR
Visi :
Ceiling :
>= 8 km
>= 3000ft
5 to 8 km
1000 to 3000 ft
1500m to 5 km
500 to 1000 ft
800 to 1500m
200 to 500 ft
< 800m
< 200 ft
Symbols :   Thunderstorms  Fog  Heavy snow  Heavy precipitations  Wind > 20 kt
SIGMETs :     Misc.  Thunderstorms  Icing  Turbulence  Mountain Waves  Volcanic Ashes







- Airport Elevation : 3 ft
- IATA code : LWR


EHLW - Leuuwarden Air Base

CURRENT METAR :
  • 171055Z AUTO 29008KT 250V320 9999 BKN035 OVC041 19/12 Q1018 BLU 28009KT 9999 SCT036 RMK R23

EXPIRED METARs :
  • 171036Z AUTO 27007KT 240V330 9999 SCT036 SCT045 20/12 Q1018 BLU 28009KT 9999 SCT036 RMK R23
  • 171025Z AUTO 28007KT 240V350 9999 BKN034 BKN042 19/12 Q1018 BLU 28009KT 9999 SCT032 RMK R23
  • 170955Z AUTO 28008KT 260V320 9999 SCT031 SCT036 20/12 Q1018 BLU 28009KT 9999 SCT032 RMK R23
  • 170929Z AUTO 28009KT 230V330 9999 NCD 19/12 Q1018 BLU 28009KT 9999 SCT032 RMK R23
  • 170925Z AUTO 27008KT 250V330 9999 FEW032 20/12 Q1018 BLU 26004KT 9999 FEW025 RMK R23
  • 170855Z AUTO 30006KT 240V310 9999 NCD 19/13 Q1017 BLU 26004KT 9999 FEW025 RMK R23
  • 170843Z AUTO 30006KT 9999 FEW024 19/13 Q1017 BLU 26004KT 9999 FEW025 RMK R23
  • 170837Z AUTO 29008KT 230V330 9999 SCT024/// 19/13 Q1017 WHT 26004KT 9999 FEW025 RMK R23
  • 170825Z AUTO 28006KT 240V320 9999 BKN300 19/15 Q1017 BLU 26004KT 9999 FEW025 RMK R23
  • 170806Z AUTO 26004KT 220V300 9999 OVC280 18/15 Q1017 BLU 26004KT 9999 FEW025 RMK R23

TAF TAF EHLW
Valid from the 17 at 09:00 until the 17 at 21:00 UTC


170821Z 1709/1721 28008KT 9999 FEW022
No reported NOTAMs for that airfield.



MET'MAP, your aeronautical weather chart ! - Copyright ORBIFLY December 2007 - Disclaimer

ORBIFLY MET'MAP TEAM :

Programming & Development : Alexandra Zaïnal
Concept & Development : Baudouin d'Aumeries
Co-Development & Prog : Marc-Olivier Méhu
Technical & hardware support : Manuel Goepfert

Contact : metmap@orbifly.com




SOURCES & CREDITS :

   NOAA